首页
METAR-TAF:

METAR-TAF

机场 :

Pratt Industrial Airport

普拉特, 堪薩斯州, 美国

纬度: 37-42N, 经度: 098-45W, 海拔: 595米

当前天气观测

该预报发布于34分钟前的02:55 UTC
风速3节,风向北转东北
温度 2°C
湿度 55%
气压 1020 hPa
能見度: 16.1公里
天空无云

METAR: KPTT 140255Z AUTO 02003KT 10SM CLR 02/M06 A3011 RMK AO2 T00231060

时间: 21:29 (03:29 UTC)


TAF: 丢失

超过4000个机场的气象观测和天气预报(METAR&TAF报告)。

可查询的气象台以黄色和红色小点在地图上表示。

将鼠标移到小点上方,可查看气象台名称。

然后点击查看天气观测和预报。

如需切换地图:点击带黑十字的绿色按钮放大地图;点击带横线的绿色按钮缩小地图;或者点击绿色箭头查看邻近地区的地图。


METAR-TAF: